createdAt,value
2016-09-29T00:00:05.351Z,57.86
2016-09-29T00:01:05.327Z,57.76
2016-09-29T00:02:05.311Z,58.24
2016-09-29T00:03:05.286Z,57.47
2016-09-29T00:04:05.273Z,57.86
2016-09-29T00:05:05.253Z,57.76
2016-09-29T00:06:05.232Z,57.86
2016-09-29T00:07:05.216Z,57.86
2016-09-29T00:08:05.194Z,57.57
2016-09-29T00:09:05.178Z,57.18
2016-09-29T00:10:05.155Z,56.99
2016-09-29T00:11:05.138Z,57.37
2016-09-29T00:12:05.117Z,57.28
2016-09-29T00:13:05.097Z,57.28
2016-09-29T00:14:05.082Z,57.18
2016-09-29T00:15:05.061Z,56.9
2016-09-29T00:16:05.040Z,56.9
2016-09-29T00:17:05.025Z,56.9
2016-09-29T00:18:05.005Z,56.8
2016-09-29T00:19:04.982Z,56.8
2016-09-29T00:20:04.967Z,56.8
2016-09-29T00:21:04.947Z,56.7
2016-09-29T00:22:04.929Z,56.51
2016-09-29T00:23:04.903Z,56.8
2016-09-29T00:24:04.891Z,56.7
2016-09-29T00:25:05.179Z,56.6
2016-09-29T00:26:04.848Z,56.51
2016-09-29T00:27:04.835Z,56.9
2016-09-29T00:28:04.815Z,56.99
2016-09-29T00:29:04.792Z,56.9
2016-09-29T00:30:04.772Z,56.99
2016-09-29T00:31:04.754Z,56.51
2016-09-29T00:32:04.738Z,56.8
2016-09-29T00:33:05.019Z,56.7
2016-09-29T00:34:04.699Z,56.7
2016-09-29T00:35:04.682Z,56.7
2016-09-29T00:36:04.659Z,56.9
2016-09-29T00:37:04.642Z,56.6
2016-09-29T00:38:04.625Z,56.6
2016-09-29T00:39:04.599Z,56.8
2016-09-29T00:40:04.587Z,56.9
2016-09-29T00:41:04.562Z,56.99
2016-09-29T00:42:04.544Z,56.9
2016-09-29T00:43:04.522Z,56.7
2016-09-29T00:44:04.505Z,56.7
2016-09-29T00:45:04.483Z,56.7
2016-09-29T00:46:04.471Z,56.7
2016-09-29T00:47:04.446Z,56.7
2016-09-29T00:48:04.430Z,56.8
2016-09-29T00:49:04.411Z,56.7
2016-09-29T00:50:04.388Z,56.7
2016-09-29T00:51:04.369Z,56.9
2016-09-29T00:52:04.356Z,56.6
2016-09-29T00:53:04.337Z,56.99
2016-09-29T00:54:04.314Z,56.9
2016-09-29T00:55:04.297Z,56.8
2016-09-29T00:56:04.275Z,56.8
2016-09-29T00:57:04.260Z,56.7
2016-09-29T00:58:04.248Z,56.7
2016-09-29T00:59:04.223Z,56.8
2016-09-29T01:00:04.195Z,56.9
2016-09-29T01:01:04.181Z,56.99
2016-09-29T01:02:04.164Z,56.7
2016-09-29T01:03:04.142Z,56.9
2016-09-29T01:04:04.122Z,56.7
2016-09-29T01:05:04.105Z,56.7
2016-09-29T01:06:04.084Z,56.7
2016-09-29T01:07:04.060Z,56.41
2016-09-29T01:08:04.042Z,56.9
2016-09-29T01:09:04.030Z,56.7
2016-09-29T01:10:04.008Z,56.6
2016-09-29T01:11:03.992Z,56.6
2016-09-29T01:12:03.967Z,56.51
2016-09-29T01:13:03.948Z,56.6
2016-09-29T01:14:03.935Z,56.6
2016-09-29T01:15:03.913Z,56.8
2016-09-29T01:16:03.892Z,56.8
2016-09-29T01:17:03.878Z,56.9
2016-09-29T01:18:03.850Z,56.99
2016-09-29T01:19:03.837Z,56.9
2016-09-29T01:20:03.819Z,57.09
2016-09-29T01:21:03.802Z,57.06
2016-09-29T01:22:03.781Z,57.28
2016-09-29T01:23:03.763Z,57.15
2016-09-29T01:24:03.738Z,57.76
2016-09-29T01:25:03.723Z,57.57
2016-09-29T01:26:03.701Z,57.64
2016-09-29T01:27:03.680Z,57.76
2016-09-29T01:28:03.666Z,57.86
2016-09-29T01:29:03.648Z,57.64
2016-09-29T01:30:03.626Z,57.73
2016-09-29T01:31:03.603Z,57.92
2016-09-29T01:32:03.588Z,58.02
2016-09-29T01:33:03.563Z,58.02
2016-09-29T01:34:03.548Z,58.12
2016-09-29T01:35:03.531Z,58.89
2016-09-29T01:36:03.507Z,58.4
2016-09-29T01:37:03.494Z,58.89
2016-09-29T01:38:03.467Z,58.5
2016-09-29T01:39:03.451Z,59.08
2016-09-29T01:40:03.433Z,59.08
2016-09-29T01:41:03.415Z,59.08
2016-09-29T01:42:03.395Z,59.08
2016-09-29T01:43:03.377Z,59.37
2016-09-29T01:44:03.353Z,59.37
2016-09-29T01:45:03.331Z,59.75
2016-09-29T01:46:03.312Z,60.14
2016-09-29T01:47:03.295Z,59.94
2016-09-29T01:48:03.277Z,59.94
2016-09-29T01:49:03.256Z,60.69
2016-09-29T01:50:03.239Z,60.3
2016-09-29T01:51:03.218Z,60.49
2016-09-29T01:52:03.197Z,60.59
2016-09-29T01:53:03.183Z,60.69
2016-09-29T01:54:03.160Z,60.69
2016-09-29T01:55:03.137Z,60.69
2016-09-29T01:56:03.117Z,61.16
2016-09-29T01:57:03.098Z,60.69
2016-09-29T01:58:03.080Z,61.16
2016-09-29T01:59:03.062Z,61.16
2016-09-29T02:00:03.040Z,61.26
2016-09-29T02:01:03.015Z,61.55
2016-09-29T02:02:02.999Z,61.55
2016-09-29T02:03:02.982Z,61.36
2016-09-29T02:04:02.959Z,61.26
2016-09-29T02:05:02.943Z,61.52
2016-09-29T02:06:02.916Z,61.71
2016-09-29T02:07:02.895Z,62
2016-09-29T02:08:02.882Z,62
2016-09-29T02:09:02.861Z,62.1
2016-09-29T02:10:02.835Z,62
2016-09-29T02:11:02.816Z,62.1
2016-09-29T02:12:02.800Z,61.91
2016-09-29T02:13:02.774Z,61.81
2016-09-29T02:14:02.755Z,61.71
2016-09-29T02:15:02.741Z,61.71
2016-09-29T02:16:02.718Z,61.81
2016-09-29T02:17:02.695Z,61.91
2016-09-29T02:18:02.678Z,61.91
2016-09-29T02:19:02.659Z,61.91
2016-09-29T02:20:02.634Z,61.71
2016-09-29T02:21:02.614Z,61.81
2016-09-29T02:22:02.596Z,62.1
2016-09-29T02:23:02.576Z,61.91
2016-09-29T02:24:02.556Z,61.91
2016-09-29T02:25:02.538Z,62.29
2016-09-29T02:26:02.518Z,61.91
2016-09-29T02:27:02.494Z,62.1
2016-09-29T02:28:02.477Z,61.91
2016-09-29T02:29:02.452Z,62.19
2016-09-29T02:30:02.433Z,62.29
2016-09-29T02:31:02.414Z,62.38
2016-09-29T02:32:02.402Z,62.38
2016-09-29T02:33:02.373Z,62.48
2016-09-29T02:34:02.353Z,62.38
2016-09-29T02:35:02.353Z,62.48
2016-09-29T02:36:02.315Z,62.58
2016-09-29T02:37:02.295Z,62.48
2016-09-29T02:38:02.278Z,62.77
2016-09-29T02:39:02.253Z,62.48
2016-09-29T02:40:02.234Z,62.58
2016-09-29T02:41:02.210Z,62.58
2016-09-29T02:42:02.188Z,62.77
2016-09-29T02:43:02.171Z,62.87
2016-09-29T02:44:02.152Z,63.06
2016-09-29T02:45:02.132Z,62.58
2016-09-29T02:46:02.111Z,62.48
2016-09-29T02:47:02.093Z,62.77
2016-09-29T02:48:02.072Z,62.77
2016-09-29T02:49:02.055Z,62.77
2016-09-29T02:50:02.029Z,63.06
2016-09-29T02:51:02.014Z,63.25
2016-09-29T02:52:01.990Z,63.35
2016-09-29T02:53:01.966Z,63.45
2016-09-29T02:54:01.947Z,63.73
2016-09-29T02:55:01.925Z,63.64
2016-09-29T02:56:01.905Z,63.45
2016-09-29T02:57:01.888Z,63.25
2016-09-29T02:58:01.863Z,63.92
2016-09-29T02:59:01.849Z,63.83
2016-09-29T03:00:01.824Z,63.6
2016-09-29T03:01:01.811Z,64.28
2016-09-29T03:02:01.783Z,63.83
2016-09-29T03:03:01.763Z,63.92
2016-09-29T03:04:01.740Z,63.92
2016-09-29T03:05:01.726Z,63.79
2016-09-29T03:06:01.707Z,63.7
2016-09-29T03:07:02.000Z,63.7
2016-09-29T03:08:01.666Z,64.37
2016-09-29T03:09:01.642Z,64.09
2016-09-29T03:10:01.620Z,64.28
2016-09-29T03:11:01.603Z,64.37
2016-09-29T03:12:01.576Z,64.28
2016-09-29T03:13:01.564Z,64.18
2016-09-29T03:14:01.540Z,64.56
2016-09-29T03:15:01.519Z,64.56
2016-09-29T03:16:01.500Z,65.05
2016-09-29T03:17:01.477Z,65.14
2016-09-29T03:18:01.457Z,64.95
2016-09-29T03:19:01.441Z,64.95
2016-09-29T03:20:01.417Z,65.05
2016-09-29T03:21:01.392Z,64.85
2016-09-29T03:22:01.373Z,65.14
2016-09-29T03:23:01.356Z,65.05
2016-09-29T03:24:01.335Z,64.95
2016-09-29T03:25:01.318Z,64.95
2016-09-29T03:26:01.297Z,64.85
2016-09-29T03:27:01.271Z,64.85
2016-09-29T03:28:01.250Z,65.14
2016-09-29T03:29:01.236Z,65.14
2016-09-29T03:30:01.215Z,65.05
2016-09-29T03:31:01.191Z,64.85
2016-09-29T03:32:01.172Z,64.85
2016-09-29T03:33:01.152Z,65.14
2016-09-29T03:34:01.425Z,64.66
2016-09-29T03:35:01.104Z,65.14
2016-09-29T03:36:01.090Z,65.23
2016-09-29T03:37:01.065Z,65.05
2016-09-29T03:38:01.046Z,65.23
2016-09-29T03:39:01.035Z,65.53
2016-09-29T03:40:01.010Z,65.43
2016-09-29T03:41:00.985Z,65.53
2016-09-29T03:42:00.978Z,65.62
2016-09-29T03:43:01.245Z,65.72
2016-09-29T03:44:00.919Z,65.53
2016-09-29T03:45:00.907Z,65.33
2016-09-29T03:46:00.887Z,65.33
2016-09-29T03:47:00.861Z,65.33
2016-09-29T03:48:00.843Z,65.23
2016-09-29T03:49:00.827Z,65.62
2016-09-29T03:50:00.802Z,65.62
2016-09-29T03:51:00.777Z,65.33
2016-09-29T03:52:00.762Z,65.23
2016-09-29T03:53:00.741Z,65.43
2016-09-29T03:54:00.721Z,65.62
2016-09-29T03:55:00.693Z,65.62
2016-09-29T03:56:00.674Z,65.91
2016-09-29T03:57:00.659Z,65.72
2016-09-29T03:58:00.638Z,65.91
2016-09-29T03:59:00.619Z,65.91
2016-09-29T04:00:00.596Z,65.78
2016-09-29T04:01:00.623Z,65.72
2016-09-29T04:02:00.549Z,65.81
2016-09-29T04:03:00.529Z,65.78
2016-09-29T04:04:00.513Z,65.69
2016-09-29T04:05:00.487Z,65.81
2016-09-29T04:06:00.466Z,65.81
2016-09-29T04:07:00.444Z,65.78
2016-09-29T04:08:00.428Z,65.88
2016-09-29T04:09:00.406Z,65.72
2016-09-29T04:10:00.386Z,65.97
2016-09-29T04:11:00.364Z,66.1
2016-09-29T04:12:00.341Z,66
2016-09-29T04:13:00.326Z,65.97
2016-09-29T04:14:00.322Z,66.1
2016-09-29T04:15:00.278Z,66.16
2016-09-29T04:16:00.262Z,65.88
2016-09-29T04:17:00.243Z,65.97
2016-09-29T04:18:00.221Z,65.78
2016-09-29T04:19:00.198Z,65.97
2016-09-29T04:20:00.183Z,66.46
2016-09-29T04:21:00.157Z,66.16
2016-09-29T04:22:00.137Z,66.36
2016-09-29T04:23:00.118Z,65.97
2016-09-29T04:24:00.097Z,66.36
2016-09-29T04:25:00.078Z,66.46
2016-09-29T04:26:00.056Z,66.46
2016-09-29T04:27:00.034Z,66.16
2016-09-29T04:28:00.011Z,66.64
2016-09-29T04:28:59.997Z,66.64
2016-09-29T04:29:59.972Z,67.03
2016-09-29T04:30:59.949Z,66.84
2016-09-29T04:31:59.927Z,66.84
2016-09-29T04:32:59.907Z,66.74
2016-09-29T04:33:59.890Z,66.64
2016-09-29T04:34:59.868Z,67.32
2016-09-29T04:35:59.847Z,67.22
2016-09-29T04:36:59.825Z,67.41
2016-09-29T04:37:59.800Z,67.22
2016-09-29T04:38:59.784Z,67.13
2016-09-29T04:39:59.759Z,66.93
2016-09-29T04:40:59.737Z,67.13
2016-09-29T04:41:59.720Z,67.41
2016-09-29T04:42:59.996Z,67.32
2016-09-29T04:43:59.675Z,67.51
2016-09-29T04:44:59.657Z,67.7
2016-09-29T04:45:59.647Z,67.32
2016-09-29T04:46:59.624Z,67.22
2016-09-29T04:47:59.628Z,67.22
2016-09-29T04:48:59.578Z,67.41
2016-09-29T04:49:59.558Z,67.32
2016-09-29T04:50:59.536Z,67.8
2016-09-29T04:51:59.509Z,67.8
2016-09-29T04:52:59.785Z,67.8
2016-09-29T04:53:59.466Z,67.8
2016-09-29T04:54:59.448Z,67.61
2016-09-29T04:55:59.426Z,67.7
2016-09-29T04:56:59.404Z,67.61
2016-09-29T04:57:59.389Z,67.8
2016-09-29T04:58:59.365Z,67.57
2016-09-29T04:59:59.341Z,67.7
2016-09-29T05:00:59.315Z,67.7
2016-09-29T05:01:59.298Z,67.47
2016-09-29T05:02:59.273Z,68.05
2016-09-29T05:03:59.254Z,67.9
2016-09-29T05:04:59.236Z,68.05
2016-09-29T05:05:59.212Z,68.24
2016-09-29T05:06:59.193Z,68.57
2016-09-29T05:07:59.170Z,68.44
2016-09-29T05:08:59.148Z,68.15
2016-09-29T05:09:59.131Z,68.24
2016-09-29T05:10:59.119Z,68.44
2016-09-29T05:11:59.083Z,68.63
2016-09-29T05:12:59.063Z,68.44
2016-09-29T05:13:59.050Z,68.34
2016-09-29T05:14:59.023Z,68.34
2016-09-29T05:15:59.006Z,68.44
2016-09-29T05:16:58.985Z,68.34
2016-09-29T05:17:58.960Z,68.53
2016-09-29T05:18:58.992Z,68.53
2016-09-29T05:19:58.915Z,68.44
2016-09-29T05:20:58.897Z,68.82
2016-09-29T05:21:58.875Z,68.82
2016-09-29T05:22:58.849Z,68.63
2016-09-29T05:23:58.828Z,68.63
2016-09-29T05:24:58.820Z,68.82
2016-09-29T05:25:58.794Z,68.63
2016-09-29T05:26:58.769Z,68.44
2016-09-29T05:27:58.762Z,68.44
2016-09-29T05:28:58.730Z,68.63
2016-09-29T05:29:58.704Z,69.4
2016-09-29T05:30:58.701Z,69.11
2016-09-29T05:31:58.665Z,69.11
2016-09-29T05:32:58.647Z,69.4
2016-09-29T05:33:58.617Z,69.11
2016-09-29T05:34:58.600Z,68.91
2016-09-29T05:35:58.577Z,68.82
2016-09-29T05:36:58.560Z,68.91
2016-09-29T05:37:58.534Z,69.01
2016-09-29T05:38:58.515Z,68.91
2016-09-29T05:39:58.495Z,68.91
2016-09-29T05:40:58.473Z,68.91
2016-09-29T05:41:58.446Z,69.49
2016-09-29T05:42:58.426Z,69.59
2016-09-29T05:43:58.404Z,69.4
2016-09-29T05:44:58.385Z,69.2
2016-09-29T05:45:58.363Z,69.2
2016-09-29T05:46:58.339Z,69.4
2016-09-29T05:47:58.344Z,69.4
2016-09-29T05:48:58.302Z,69.4
2016-09-29T05:49:58.273Z,69.49
2016-09-29T05:50:58.255Z,69.78
2016-09-29T05:51:58.238Z,69.78
2016-09-29T05:52:58.216Z,69.2
2016-09-29T05:53:58.194Z,69.59
2016-09-29T05:54:58.175Z,69.4
2016-09-29T05:55:58.145Z,69.3
2016-09-29T05:56:58.130Z,69.4
2016-09-29T05:57:58.109Z,69.4
2016-09-29T05:58:58.087Z,69.3
2016-09-29T05:59:58.066Z,69.3
2016-09-29T06:00:58.045Z,69.68
2016-09-29T06:01:58.025Z,69.2
2016-09-29T06:02:58.001Z,69.87
2016-09-29T06:03:57.975Z,69.68
2016-09-29T06:04:57.960Z,69.59
2016-09-29T06:05:57.937Z,69.49
2016-09-29T06:06:57.913Z,69.3
2016-09-29T06:07:57.896Z,69.4
2016-09-29T06:08:57.874Z,69.4
2016-09-29T06:09:57.854Z,69.2
2016-09-29T06:10:57.835Z,69.4
2016-09-29T06:11:57.813Z,69.3
2016-09-29T06:12:57.787Z,69.3
2016-09-29T06:13:57.785Z,69.49
2016-09-29T06:14:57.751Z,69.3
2016-09-29T06:15:57.741Z,69.4
2016-09-29T06:16:57.709Z,69.3
2016-09-29T06:17:57.686Z,69.4
2016-09-29T06:18:57.666Z,69.3
2016-09-29T06:19:57.641Z,69.68
2016-09-29T06:20:57.619Z,69.59
2016-09-29T06:21:57.601Z,69.59
2016-09-29T06:22:57.576Z,69.49
2016-09-29T06:23:57.554Z,69.68
2016-09-29T06:24:57.538Z,69.49
2016-09-29T06:25:57.518Z,69.3
2016-09-29T06:26:57.794Z,69.2
2016-09-29T06:27:57.476Z,69.49
2016-09-29T06:28:57.455Z,69.4
2016-09-29T06:29:57.435Z,69.2
2016-09-29T06:30:57.426Z,69.3
2016-09-29T06:31:57.387Z,69.49
2016-09-29T06:32:57.371Z,69.3
2016-09-29T06:33:57.350Z,69.78
2016-09-29T06:34:57.325Z,69.49
2016-09-29T06:35:57.920Z,69.62
2016-09-29T06:36:57.289Z,69.4
2016-09-29T06:37:57.263Z,69.4
2016-09-29T06:38:57.248Z,69.49
2016-09-29T06:39:57.227Z,69.91
2016-09-29T06:40:57.203Z,69.87
2016-09-29T06:41:57.183Z,69.97
2016-09-29T06:42:57.167Z,69.78
2016-09-29T06:43:57.441Z,69.87
2016-09-29T06:44:57.122Z,69.87
2016-09-29T06:45:57.101Z,69.91
2016-09-29T06:46:57.077Z,69.78
2016-09-29T06:47:57.058Z,69.78
2016-09-29T06:48:57.091Z,69.81
2016-09-29T06:49:57.022Z,69.78
2016-09-29T06:50:56.996Z,69.87
2016-09-29T06:51:56.974Z,70.01
2016-09-29T06:52:56.953Z,69.78
2016-09-29T06:53:56.934Z,69.72
2016-09-29T06:54:56.915Z,70.01
2016-09-29T06:55:56.893Z,70.01
2016-09-29T06:56:56.876Z,69.91
2016-09-29T06:57:56.855Z,69.91
2016-09-29T06:58:56.835Z,69.81
2016-09-29T06:59:56.811Z,70.01
2016-09-29T07:00:56.794Z,69.91
2016-09-29T07:01:56.772Z,70.01
2016-09-29T07:02:56.750Z,69.91
2016-09-29T07:03:56.729Z,69.91
2016-09-29T07:04:56.711Z,70.07
2016-09-29T07:05:56.813Z,69.91
2016-09-29T07:06:56.668Z,69.81
2016-09-29T07:07:56.655Z,70.01
2016-09-29T07:08:56.620Z,69.81
2016-09-29T07:09:56.750Z,69.81
2016-09-29T07:10:56.587Z,69.81
2016-09-29T07:11:56.561Z,69.91
2016-09-29T07:12:56.542Z,69.81
2016-09-29T07:13:56.520Z,69.62
2016-09-29T07:14:56.511Z,69.91
2016-09-29T07:15:56.485Z,69.53
2016-09-29T07:16:56.458Z,69.43
2016-09-29T07:17:56.438Z,69.43
2016-09-29T07:18:56.421Z,69.34
2016-09-29T07:19:56.400Z,69.43
2016-09-29T07:20:56.378Z,69.62
2016-09-29T07:21:56.361Z,69.43
2016-09-29T07:22:56.341Z,69.24
2016-09-29T07:23:56.320Z,68.76
2016-09-29T07:24:56.295Z,68.95
2016-09-29T07:25:56.280Z,69.24
2016-09-29T07:26:56.259Z,69.27
2016-09-29T07:27:56.240Z,68.47
2016-09-29T07:28:56.214Z,68.51
2016-09-29T07:29:56.201Z,68.51
2016-09-29T07:30:56.178Z,68.21
2016-09-29T07:31:56.163Z,68.51
2016-09-29T07:32:56.136Z,68.31
2016-09-29T07:33:56.116Z,67.54
2016-09-29T07:34:56.103Z,67.83
2016-09-29T07:35:56.080Z,67.93
2016-09-29T07:36:56.064Z,67.45
2016-09-29T07:37:56.039Z,67.58
2016-09-29T07:38:56.017Z,67.48
2016-09-29T07:39:56.002Z,67.19
2016-09-29T07:40:55.982Z,67.48
2016-09-29T07:41:55.969Z,66.81
2016-09-29T07:42:55.945Z,67.1
2016-09-29T07:43:55.926Z,66.81
2016-09-29T07:44:55.902Z,66.61
2016-09-29T07:45:55.882Z,66.14
2016-09-29T07:46:55.863Z,66.33
2016-09-29T07:47:55.847Z,65.94
2016-09-29T07:48:55.826Z,66.23
2016-09-29T07:49:55.810Z,65.94
2016-09-29T07:50:55.794Z,65.66
2016-09-29T07:51:55.772Z,65.56
2016-09-29T07:52:55.751Z,65.69
2016-09-29T07:53:55.735Z,65.2
2016-09-29T07:54:55.717Z,65.11
2016-09-29T07:55:55.695Z,65.2
2016-09-29T07:56:55.673Z,64.73
2016-09-29T07:57:55.667Z,64.25
2016-09-29T07:58:55.697Z,64.25
2016-09-29T07:59:55.621Z,64.34
2016-09-29T08:00:55.600Z,63.86
2016-09-29T08:01:55.585Z,63.95
2016-09-29T08:02:55.564Z,64.05
2016-09-29T08:03:55.543Z,63.99
2016-09-29T08:04:55.528Z,64.28
2016-09-29T08:05:55.508Z,63.89
2016-09-29T08:06:55.495Z,63.79
2016-09-29T08:07:55.470Z,63.6
2016-09-29T08:08:55.456Z,63.7
2016-09-29T08:09:55.438Z,63.31
2016-09-29T08:10:55.418Z,63.41
2016-09-29T08:11:55.401Z,63.22
2016-09-29T08:12:55.383Z,63.31
2016-09-29T08:13:55.361Z,63.51
2016-09-29T08:14:55.346Z,63.02
2016-09-29T08:15:55.327Z,62.93
2016-09-29T08:16:55.311Z,62.93
2016-09-29T08:17:55.292Z,62.93
2016-09-29T08:18:55.271Z,62.64
2016-09-29T08:19:55.257Z,63.12
2016-09-29T08:20:55.239Z,63.02
2016-09-29T08:21:55.221Z,62.83
2016-09-29T08:22:55.201Z,62.45
2016-09-29T08:23:55.182Z,62.45
2016-09-29T08:24:55.461Z,62.29
2016-09-29T08:25:55.149Z,62
2016-09-29T08:26:55.127Z,62.19
2016-09-29T08:27:55.107Z,62.19
2016-09-29T08:28:55.092Z,61.61
2016-09-29T08:29:55.077Z,61.32
2016-09-29T08:30:55.060Z,61.42
2016-09-29T08:31:55.036Z,61.71
2016-09-29T08:32:55.023Z,60.94
2016-09-29T08:33:55.004Z,61.22
2016-09-29T08:34:54.985Z,61.07
2016-09-29T08:35:54.968Z,60.68
2016-09-29T08:36:54.951Z,60.68
2016-09-29T08:37:54.935Z,60.58
2016-09-29T08:38:54.913Z,60.39
2016-09-29T08:39:54.916Z,60.03
2016-09-29T08:40:54.891Z,59.84
2016-09-29T08:41:54.936Z,59.84
2016-09-29T08:42:54.894Z,59.55
2016-09-29T08:43:54.828Z,59.55
2016-09-29T08:44:54.815Z,59.36
2016-09-29T08:45:54.800Z,59.07
2016-09-29T08:46:54.782Z,59.27
2016-09-29T08:47:54.761Z,59.27
2016-09-29T08:48:54.749Z,59.07
2016-09-29T08:49:54.730Z,59.36
2016-09-29T08:50:54.712Z,59.36
2016-09-29T08:51:54.692Z,59.27
2016-09-29T08:52:54.678Z,58.97
2016-09-29T08:53:54.659Z,59.17
2016-09-29T08:54:54.638Z,59.17
2016-09-29T08:55:54.626Z,58.78
2016-09-29T08:56:54.609Z,58.78
2016-09-29T08:57:54.590Z,59.07
2016-09-29T08:58:54.576Z,59.07
2016-09-29T08:59:54.557Z,59.17
2016-09-29T09:00:54.538Z,59.07
2016-09-29T09:01:54.518Z,59.17
2016-09-29T09:02:54.509Z,59.07
2016-09-29T09:03:54.482Z,59.27
2016-09-29T09:04:54.518Z,59.36
2016-09-29T09:05:54.449Z,59.27
2016-09-29T09:06:54.431Z,59.27
2016-09-29T09:07:54.422Z,59.17
2016-09-29T09:08:54.398Z,59.07
2016-09-29T09:09:54.377Z,59.27
2016-09-29T09:10:54.367Z,59.07
2016-09-29T09:11:54.373Z,59.27
2016-09-29T09:12:54.332Z,59.17
2016-09-29T09:13:54.310Z,59.17
2016-09-29T09:14:54.291Z,58.97
2016-09-29T09:15:54.272Z,59.36
2016-09-29T09:16:54.256Z,59.27
2016-09-29T09:17:54.241Z,59.36
2016-09-29T09:18:54.223Z,59.17
2016-09-29T09:19:54.295Z,59.07
2016-09-29T09:20:54.190Z,59.07
2016-09-29T09:21:54.173Z,59.17
2016-09-29T09:22:54.151Z,59.07
2016-09-29T09:23:54.141Z,59.07
2016-09-29T09:24:54.119Z,59.27
2016-09-29T09:25:54.097Z,59.27
2016-09-29T09:26:54.086Z,58.97
2016-09-29T09:27:54.066Z,59.17
2016-09-29T09:28:54.051Z,59.45
2016-09-29T09:29:54.029Z,58.97
2016-09-29T09:30:54.014Z,59.27
2016-09-29T09:31:53.993Z,59.27
2016-09-29T09:32:54.009Z,59.17
2016-09-29T09:33:53.957Z,59.27
2016-09-29T09:34:53.943Z,59.07
2016-09-29T09:35:53.919Z,59.07
2016-09-29T09:36:53.905Z,58.97
2016-09-29T09:37:53.893Z,58.97
2016-09-29T09:38:53.873Z,59.27
2016-09-29T09:39:53.855Z,59.27
2016-09-29T09:40:53.841Z,59.07
2016-09-29T09:41:53.816Z,59.17
2016-09-29T09:42:53.807Z,58.78
2016-09-29T09:43:53.786Z,58.78
2016-09-29T09:44:53.800Z,58.69
2016-09-29T09:45:53.750Z,58.3
2016-09-29T09:46:53.737Z,58.4
2016-09-29T09:47:53.716Z,58.4
2016-09-29T09:48:53.703Z,58.78
2016-09-29T09:49:53.684Z,58.49
2016-09-29T09:50:53.668Z,58.59
2016-09-29T09:51:53.653Z,58.59
2016-09-29T09:52:53.632Z,58.4
2016-09-29T09:53:53.621Z,58.4
2016-09-29T09:54:53.625Z,58.81
2016-09-29T09:55:53.588Z,58.14
2016-09-29T09:56:53.572Z,58.23
2016-09-29T09:57:53.549Z,58.14
2016-09-29T09:58:53.536Z,58.14
2016-09-29T09:59:53.909Z,58.14
2016-09-29T10:00:53.501Z,58.23
2016-09-29T10:01:53.483Z,57.94
2016-09-29T10:02:53.467Z,57.75
2016-09-29T10:03:53.455Z,57.59
2016-09-29T10:04:53.434Z,57.1
2016-09-29T10:05:53.423Z,57.01
2016-09-29T10:06:53.406Z,57.2
2016-09-29T10:07:53.389Z,56.81
2016-09-29T10:08:53.371Z,56.81
2016-09-29T10:09:53.357Z,56.81
2016-09-29T10:10:53.343Z,56.52
2016-09-29T10:11:53.324Z,56.33
2016-09-29T10:12:53.302Z,56.04
2016-09-29T10:13:53.288Z,55.85
2016-09-29T10:14:53.270Z,55.66
2016-09-29T10:15:53.253Z,55.85
2016-09-29T10:16:53.243Z,55.76
2016-09-29T10:17:53.225Z,55.76
2016-09-29T10:18:53.212Z,55.66
2016-09-29T10:19:53.189Z,55.94
2016-09-29T10:20:53.173Z,56.04
2016-09-29T10:21:53.162Z,55.27
2016-09-29T10:22:53.146Z,55.36
2016-09-29T10:23:53.135Z,55.27
2016-09-29T10:24:53.108Z,55.36
2016-09-29T10:25:53.095Z,55.27
2016-09-29T10:26:53.385Z,55.18
2016-09-29T10:27:53.060Z,55.27
2016-09-29T10:28:53.047Z,55.36
2016-09-29T10:29:53.034Z,55.46
2016-09-29T10:30:53.014Z,55.56
2016-09-29T10:31:52.998Z,55.18
2016-09-29T10:32:52.983Z,55.27
2016-09-29T10:33:52.959Z,56.14
2016-09-29T10:34:52.948Z,56.14
2016-09-29T10:35:52.933Z,55.66
2016-09-29T10:36:52.913Z,56.14
2016-09-29T10:37:52.898Z,56.14
2016-09-29T10:38:52.876Z,55.36
2016-09-29T10:39:52.867Z,55.76
2016-09-29T10:40:52.849Z,55.46
2016-09-29T10:41:52.827Z,55.46
2016-09-29T10:42:52.816Z,55.46
2016-09-29T10:43:52.799Z,55.2
2016-09-29T10:44:52.777Z,55.1
2016-09-29T10:45:52.764Z,54.33
2016-09-29T10:46:52.751Z,54.72
2016-09-29T10:47:52.734Z,54.14
2016-09-29T10:48:52.709Z,54.24
2016-09-29T10:49:52.697Z,53.97
2016-09-29T10:50:52.686Z,53.59
2016-09-29T10:51:52.666Z,53.59
2016-09-29T10:52:52.663Z,53.39
2016-09-29T10:53:52.636Z,53.3
2016-09-29T10:54:52.616Z,53.11
2016-09-29T10:55:52.618Z,53.01
2016-09-29T10:56:52.585Z,53.2
2016-09-29T10:57:52.569Z,53.2
2016-09-29T10:58:52.557Z,53.11
2016-09-29T10:59:52.534Z,52.81
2016-09-29T11:00:52.518Z,52.81
2016-09-29T11:01:52.501Z,52.43
2016-09-29T11:02:52.488Z,52.04
2016-09-29T11:03:52.474Z,51.95
2016-09-29T11:04:52.453Z,51.75
2016-09-29T11:05:52.441Z,51.75
2016-09-29T11:06:52.418Z,51.75
2016-09-29T11:07:52.410Z,51.56
2016-09-29T11:08:52.391Z,51.65
2016-09-29T11:09:52.466Z,51.46
2016-09-29T11:10:52.355Z,52.04
2016-09-29T11:11:52.445Z,51.85
2016-09-29T11:12:52.328Z,51.95
2016-09-29T11:13:52.315Z,51.85
2016-09-29T11:14:52.292Z,52.04
2016-09-29T11:15:52.277Z,51.46
2016-09-29T11:16:52.260Z,51.2
2016-09-29T11:17:52.244Z,51.1
2016-09-29T11:18:52.233Z,51.2
2016-09-29T11:19:52.213Z,50.81
2016-09-29T11:20:52.203Z,51.01
2016-09-29T11:21:52.189Z,50.81
2016-09-29T11:22:52.166Z,50.91
2016-09-29T11:23:52.148Z,50.91
2016-09-29T11:24:52.136Z,50.62
2016-09-29T11:25:52.421Z,50.43
2016-09-29T11:26:52.107Z,50.71
2016-09-29T11:27:52.094Z,50.43
2016-09-29T11:28:52.073Z,50.13
2016-09-29T11:29:52.081Z,50.71
2016-09-29T11:30:52.038Z,50.43
2016-09-29T11:31:52.025Z,50.33
2016-09-29T11:32:52.003Z,50.33
2016-09-29T11:33:51.992Z,50.33
2016-09-29T11:34:51.979Z,50.52
2016-09-29T11:35:51.958Z,50.04
2016-09-29T11:36:51.943Z,49.46
2016-09-29T11:37:51.929Z,49.75
2016-09-29T11:38:51.914Z,49.37
2016-09-29T11:39:51.898Z,49.46
2016-09-29T11:40:51.878Z,49.55
2016-09-29T11:41:51.917Z,49.39
2016-09-29T11:42:51.847Z,49.39
2016-09-29T11:43:51.834Z,49.58
2016-09-29T11:44:52.144Z,49.29
2016-09-29T11:45:51.805Z,49.19
2016-09-29T11:46:51.873Z,49.29
2016-09-29T11:47:51.798Z,49.1
2016-09-29T11:48:51.763Z,49.1
2016-09-29T11:49:51.742Z,49.02
2016-09-29T11:50:51.718Z,49.19
2016-09-29T11:51:51.709Z,48.74
2016-09-29T11:52:51.693Z,48.71
2016-09-29T11:53:51.678Z,48.83
2016-09-29T11:54:51.658Z,48.93
2016-09-29T11:55:51.649Z,48.35
2016-09-29T11:56:51.632Z,48.44
2016-09-29T11:57:51.616Z,48.54
2016-09-29T11:58:51.599Z,47.96
2016-09-29T11:59:51.627Z,48.06
2016-09-29T12:00:51.568Z,47.96
2016-09-29T12:01:51.554Z,47.58
2016-09-29T12:02:51.541Z,47.38
2016-09-29T12:03:51.524Z,46.44
2016-09-29T12:04:51.510Z,46.53
2016-09-29T12:05:51.595Z,46.34
2016-09-29T12:06:51.502Z,46.05
2016-09-29T12:07:51.475Z,45.66
2016-09-29T12:08:51.452Z,45.28
2016-09-29T12:09:51.437Z,44.89
2016-09-29T12:10:51.424Z,44.6
2016-09-29T12:11:51.404Z,44.5
2016-09-29T12:12:51.395Z,44.81
2016-09-29T12:13:51.381Z,44.72
2016-09-29T12:14:51.363Z,44.72
2016-09-29T12:15:51.408Z,44.23
2016-09-29T12:16:51.337Z,44.23
2016-09-29T12:17:51.319Z,43.95
2016-09-29T12:18:51.308Z,44.13
2016-09-29T12:19:51.291Z,44.04
2016-09-29T12:20:51.281Z,43.95
2016-09-29T12:21:51.267Z,43.85
2016-09-29T12:22:51.250Z,43.87
2016-09-29T12:23:51.242Z,43.87
2016-09-29T12:24:51.229Z,44.16
2016-09-29T12:25:51.212Z,44.16
2016-09-29T12:26:51.196Z,43.68
2016-09-29T12:27:51.184Z,43.75
2016-09-29T12:28:51.175Z,43.85
2016-09-29T12:29:51.161Z,43.07
2016-09-29T12:30:51.140Z,43.27
2016-09-29T12:31:51.133Z,43.07
2016-09-29T12:32:51.114Z,43.65
2016-09-29T12:33:51.111Z,43.75
2016-09-29T12:34:51.089Z,43.85
2016-09-29T12:35:51.073Z,43.85
2016-09-29T12:36:51.060Z,43.55
2016-09-29T12:37:51.042Z,43.75
2016-09-29T12:38:51.099Z,43.46
2016-09-29T12:39:51.017Z,43.38
2016-09-29T12:40:51.314Z,43
2016-09-29T12:41:50.988Z,42.49
2016-09-29T12:42:51.273Z,42.59
2016-09-29T12:43:50.957Z,42.13
2016-09-29T12:44:50.950Z,42.03
2016-09-29T12:45:50.936Z,42.1
2016-09-29T12:46:51.221Z,42
2016-09-29T12:47:50.904Z,42.2
2016-09-29T12:48:50.891Z,42.1
2016-09-29T12:49:50.881Z,42.2
2016-09-29T12:50:50.861Z,42.3
2016-09-29T12:51:50.853Z,42.3
2016-09-29T12:52:50.836Z,42.2
2016-09-29T12:53:50.821Z,41.91
2016-09-29T12:54:50.807Z,41.91
2016-09-29T12:55:50.789Z,41.91
2016-09-29T12:56:50.787Z,41.91
2016-09-29T12:57:50.761Z,42